Time;durP1;ratioP1;P1;durP2;ratioP2;P2;SDS_P1;SDS_P2;PMS_P1;PMS_P2;Temp;Humidity;BMP_temperature;BMP_pressure;BME280_temperature;BME280_humidity;BME280_pressure;Samples;Min_cycle;Max_cycle;Signal;HPM_P1;HPM_P2
2021/12/26 00:00:31;;;;;;;4.22;2.60;;;;;;;0.35;57.83;100787.81;5051080;28;20031;-65
2021/12/26 00:02:57;;;;;;;4.68;2.70;;;;;;;0.27;57.70;100789.13;5052311;28;20490;-65
2021/12/26 00:05:23;;;;;;;5.60;2.55;;;;;;;0.25;58.16;100791.63;5052978;28;20386;-64
2021/12/26 00:07:49;;;;;;;5.68;3.00;;;;;;;0.24;59.15;100788.13;5052700;28;20025;-65
2021/12/26 00:10:21;;;;;;;5.70;2.80;;;;;;;0.23;58.61;100785.47;5056469;28;20033;-64
2021/12/26 00:12:47;;;;;;;6.18;2.80;;;;;;;0.27;58.43;100787.41;5056422;28;20422;-64
2021/12/26 00:15:13;;;;;;;5.55;2.58;;;;;;;0.36;58.20;100792.19;5056421;28;20033;-65
2021/12/26 00:17:38;;;;;;;5.60;2.95;;;;;;;0.34;57.51;100797.28;5056640;28;20480;-64
2021/12/26 00:20:06;;;;;;;4.93;2.80;;;;;;;0.34;58.40;100791.19;5038566;28;20025;-64
2021/12/26 00:22:32;;;;;;;8.02;2.90;;;;;;;0.34;58.51;100783.38;5056548;28;20040;-64
2021/12/26 00:24:57;;;;;;;4.97;2.83;;;;;;;0.38;57.97;100785.34;5056441;28;20025;-65
2021/12/26 00:27:23;;;;;;;5.70;2.83;;;;;;;0.35;57.55;100774.81;5073506;28;20059;-64
2021/12/26 00:29:49;;;;;;;4.82;2.90;;;;;;;0.30;57.73;100779.78;5076284;28;20116;-65
2021/12/26 00:32:15;;;;;;;6.82;3.30;;;;;;;0.29;58.24;100775.38;5076455;28;20013;-64
2021/12/26 00:34:41;;;;;;;4.88;2.80;;;;;;;0.29;58.79;100771.88;5076193;28;20024;-64
2021/12/26 00:37:07;;;;;;;5.43;2.70;;;;;;;0.24;58.15;100772.53;5076266;28;20052;-64
2021/12/26 00:39:34;;;;;;;5.35;2.70;;;;;;;0.16;58.66;100767.75;5076190;28;20036;-64
2021/12/26 00:42:00;;;;;;;5.30;2.75;;;;;;;0.11;58.64;100766.66;5076188;28;20036;-64
2021/12/26 00:44:26;;;;;;;6.43;2.60;;;;;;;0.12;59.10;100766.72;5076035;28;20107;-64
2021/12/26 00:46:53;;;;;;;5.20;2.63;;;;;;;0.07;58.40;100765.59;5075870;28;20531;-65
2021/12/26 00:49:23;;;;;;;4.85;2.70;;;;;;;0.05;60.67;100759.44;5075913;28;20474;-64
2021/12/26 00:51:55;;;;;;;5.10;2.70;;;;;;;0.08;58.49;100775.16;5075826;28;20032;-65
2021/12/26 00:54:20;;;;;;;4.57;2.55;;;;;;;0.08;58.61;100762.16;5057947;28;20024;-64
2021/12/26 00:56:46;;;;;;;9.05;5.63;;;;;;;0.03;58.55;100770.56;5075847;28;20024;-65
2021/12/26 00:59:11;;;;;;;9.38;4.85;;;;;;;0.01;58.89;100761.81;5075720;28;20035;-65
2021/12/26 01:01:37;;;;;;;5.20;3.15;;;;;;;-0.04;58.62;100759.84;5075664;28;20032;-65
2021/12/26 01:04:03;;;;;;;5.32;2.80;;;;;;;0.06;59.11;100763.81;5075701;28;20068;-65
2021/12/26 01:06:29;;;;;;;5.38;2.88;;;;;;;0.06;58.63;100774.19;5075763;28;20025;-65
2021/12/26 01:08:55;;;;;;;5.70;2.78;;;;;;;0.08;59.78;100772.56;5075673;28;20078;-65
2021/12/26 01:11:35;;;;;;;7.00;2.70;;;;;;;0.10;58.68;100770.06;5075767;28;20033;-64
2021/12/26 01:14:04;;;;;;;4.45;2.47;;;;;;;0.18;59.65;100779.16;5075382;28;20025;-65
2021/12/26 01:16:30;;;;;;;5.20;3.00;;;;;;;0.18;58.54;100772.25;5075541;28;20462;-64
2021/12/26 01:19:03;;;;;;;4.80;2.83;;;;;;;0.18;58.79;100777.44;5075207;28;20521;-64
2021/12/26 01:21:29;;;;;;;6.13;2.83;;;;;;;0.18;58.67;100780.03;5074445;28;20036;-64
2021/12/26 01:24:01;;;;;;;4.50;2.70;;;;;;;0.20;58.73;100777.50;5075091;28;20032;-65
2021/12/26 01:26:28;;;;;;;5.32;2.95;;;;;;;0.20;59.23;100772.31;5075161;28;20033;-64
2021/12/26 01:28:54;;;;;;;6.65;2.97;;;;;;;0.18;58.80;100767.03;5075192;28;20021;-64
2021/12/26 01:31:20;;;;;;;8.18;3.15;;;;;;;0.22;58.86;100771.59;5075216;28;20031;-65
2021/12/26 01:33:48;;;;;;;5.35;2.97;;;;;;;0.20;59.39;100764.50;5075343;28;20016;-64
2021/12/26 01:36:13;;;;;;;5.25;2.90;;;;;;;0.25;58.62;100773.44;5075324;28;20024;-64
2021/12/26 01:38:39;;;;;;;6.00;3.15;;;;;;;0.25;58.51;100769.13;5075126;28;20039;-64
2021/12/26 01:41:10;;;;;;;7.13;3.10;;;;;;;0.30;58.55;100771.06;5074912;28;20025;-65
2021/12/26 01:43:38;;;;;;;5.95;2.95;;;;;;;0.31;58.55;100776.34;5074976;28;20135;-64
2021/12/26 01:46:04;;;;;;;7.72;3.13;;;;;;;0.29;58.74;100757.19;5074970;28;20028;-64
2021/12/26 01:48:29;;;;;;;4.75;2.80;;;;;;;0.35;58.88;100761.81;5074839;28;20033;-64
2021/12/26 01:50:55;;;;;;;6.50;3.00;;;;;;;0.30;57.99;100753.78;5074860;28;20100;-65
2021/12/26 01:53:24;;;;;;;5.40;3.15;;;;;;;0.21;58.57;100751.63;5075019;28;20485;-65
2021/12/26 01:55:51;;;;;;;5.18;3.00;;;;;;;0.15;59.22;100758.19;5074963;28;20466;-64
2021/12/26 01:58:28;;;;;;;6.38;3.10;;;;;;;0.17;59.13;100757.47;5074593;28;20029;-64
2021/12/26 02:01:01;;;;;;;6.50;3.03;;;;;;;0.17;58.94;100756.56;5074686;28;20086;-65
2021/12/26 02:03:26;;;;;;;5.65;3.08;;;;;;;0.17;58.24;100760.06;5074573;28;20024;-64
2021/12/26 02:05:52;;;;;;;5.15;3.10;;;;;;;0.18;58.73;100758.34;5074539;28;20127;-65
2021/12/26 02:08:18;;;;;;;6.82;3.20;;;;;;;0.20;58.35;100757.59;5074575;28;20449;-64
2021/12/26 02:10:43;;;;;;;8.30;3.33;;;;;;;0.21;58.33;100758.50;5074453;28;20056;-64
2021/12/26 02:13:09;;;;;;;5.45;3.00;;;;;;;0.20;58.64;100755.00;5074439;28;20043;-64
2021/12/26 02:15:35;;;;;;;6.90;3.13;;;;;;;0.14;59.06;100757.31;5074353;28;20025;-64
2021/12/26 02:18:01;;;;;;;5.50;3.10;;;;;;;0.16;58.71;100759.97;5074404;28;20409;-65
2021/12/26 02:20:37;;;;;;;5.20;3.22;;;;;;;0.11;58.35;100753.66;5074205;28;20025;-64
2021/12/26 02:23:13;;;;;;;8.13;3.20;;;;;;;0.08;58.38;100751.78;5074210;28;20028;-64
2021/12/26 02:28:13;;;;;;;5.65;2.95;;;;;;;0.08;59.49;100738.78;5074146;28;20029;-64
2021/12/26 02:30:39;;;;;;;5.35;2.97;;;;;;;0.09;59.67;100744.91;5056277;28;20063;-64
2021/12/26 02:33:08;;;;;;;6.25;3.05;;;;;;;0.09;60.06;100756.19;5073813;28;20052;-64
2021/12/26 02:35:34;;;;;;;7.63;2.90;;;;;;;0.08;59.67;100744.00;5073981;28;20070;-64
2021/12/26 02:37:59;;;;;;;7.22;3.38;;;;;;;0.09;59.71;100747.50;5073825;28;20038;-64
2021/12/26 02:40:25;;;;;;;5.80;3.25;;;;;;;0.06;59.59;100745.63;5073893;28;20537;-65
2021/12/26 02:42:50;;;;;;;4.95;3.10;;;;;;;0.03;59.87;100735.06;5073941;28;20024;-64
2021/12/26 02:45:16;;;;;;;5.57;3.00;;;;;;;0.03;59.75;100735.06;5073772;28;20382;-64
2021/12/26 02:47:44;;;;;;;5.75;3.05;;;;;;;0.03;60.16;100737.66;5073627;28;20024;-64
2021/12/26 02:50:20;;;;;;;5.80;3.03;;;;;;;0.03;59.71;100734.19;5073807;28;20025;-64
2021/12/26 02:52:46;;;;;;;6.45;3.15;;;;;;;0.06;60.51;100730.03;5073592;28;20036;-64
2021/12/26 02:55:13;;;;;;;6.10;3.05;;;;;;;0.10;60.07;100737.19;5073629;28;20017;-63
2021/12/26 02:57:39;;;;;;;5.65;3.30;;;;;;;0.13;60.08;100736.44;5073550;28;20039;-64
2021/12/26 03:00:14;;;;;;;6.25;3.20;;;;;;;0.17;60.16;100740.97;5073447;28;20063;-64
2021/12/26 03:02:44;;;;;;;7.00;3.00;;;;;;;0.16;60.01;100737.47;5073461;28;20029;-64
2021/12/26 03:05:11;;;;;;;5.57;3.05;;;;;;;-0.07;60.27;100693.88;5073469;28;20040;-64
2021/12/26 03:07:36;;;;;;;6.15;2.92;;;;;;;0.21;59.93;100741.22;5073624;28;20039;-64
2021/12/26 03:10:05;;;;;;;8.07;3.03;;;;;;;0.16;59.68;100739.19;5073445;28;20409;-64
2021/12/26 03:12:33;;;;;;;4.30;2.95;;;;;;;0.05;59.75;100740.38;5073208;28;20461;-64
2021/12/26 03:14:58;;;;;;;5.90;3.28;;;;;;;0.06;59.58;100736.94;5073314;28;20031;-65
2021/12/26 03:17:24;;;;;;;6.57;3.15;;;;;;;0.02;60.10;100742.81;5073351;28;20028;-64
2021/12/26 03:19:49;;;;;;;5.93;3.00;;;;;;;0.04;60.56;100739.44;5073105;28;20025;-64
2021/12/26 03:22:18;;;;;;;6.35;3.38;;;;;;;0.07;60.45;100737.00;5073231;28;20053;-64
2021/12/26 03:24:44;;;;;;;4.55;3.00;;;;;;;0.07;60.41;100737.00;5073293;28;20032;-64
2021/12/26 03:27:11;;;;;;;5.93;3.28;;;;;;;0.11;60.13;100722.47;5073018;28;20051;-64
2021/12/26 03:29:37;;;;;;;6.72;3.45;;;;;;;0.05;59.68;100717.00;5073111;28;20024;-64
2021/12/26 03:32:04;;;;;;;5.40;3.13;;;;;;;0.06;59.84;100709.25;5073167;28;20101;-64
2021/12/26 03:34:29;;;;;;;7.90;3.08;;;;;;;0.10;60.47;100716.41;5073005;28;20108;-64
2021/12/26 03:36:56;;;;;;;6.82;3.13;;;;;;;0.08;60.84;100709.31;5072988;28;20056;-64
2021/12/26 03:39:22;;;;;;;6.68;3.30;;;;;;;0.08;60.43;100715.41;5073105;28;20572;-64
2021/12/26 03:41:49;;;;;;;5.75;3.00;;;;;;;0.09;60.25;100714.63;5072932;28;20028;-64
2021/12/26 03:44:15;;;;;;;5.30;3.10;;;;;;;0.05;59.45;100717.00;5072644;28;20066;-62
2021/12/26 03:46:40;;;;;;;4.35;2.95;;;;;;;-0.07;60.11;100715.53;5072891;28;20107;-62
2021/12/26 03:49:06;;;;;;;6.88;3.20;;;;;;;-0.15;60.40;100716.84;5072788;28;20025;-62
2021/12/26 03:51:33;;;;;;;5.45;3.00;;;;;;;-0.16;60.29;100711.59;5072891;28;20366;-62
2021/12/26 03:54:00;;;;;;;6.03;3.08;;;;;;;-0.19;60.81;100709.72;5073039;28;20378;-62
2021/12/26 03:56:27;;;;;;;5.40;3.10;;;;;;;-0.32;60.75;100708.19;5072823;28;20155;-62
2021/12/26 03:58:53;;;;;;;5.57;3.03;;;;;;;-0.36;60.99;100705.34;5072804;28;20033;-62
2021/12/26 04:01:18;;;;;;;6.20;3.08;;;;;;;-0.43;61.40;100711.03;5072746;28;20029;-62
2021/12/26 04:03:43;;;;;;;4.43;2.75;;;;;;;-0.39;61.25;100712.97;5072771;28;20039;-62
2021/12/26 04:06:09;;;;;;;12.02;3.22;;;;;;;-0.36;61.36;100706.25;5072622;28;20028;-62
2021/12/26 04:08:35;;;;;;;5.30;3.20;;;;;;;-0.40;61.50;100695.63;5072842;28;20416;-62
2021/12/26 04:11:00;;;;;;;4.88;2.90;;;;;;;-0.37;61.26;100701.88;5072749;28;20071;-62
2021/12/26 04:13:25;;;;;;;5.95;3.28;;;;;;;-0.35;61.46;100699.34;5072711;28;20023;-62
2021/12/26 04:15:51;;;;;;;5.03;3.10;;;;;;;-0.33;61.78;100703.81;5072756;28;20034;-62
2021/12/26 04:18:16;;;;;;;5.55;2.97;;;;;;;-0.34;61.57;100698.56;5072630;28;20505;-62
2021/12/26 04:20:42;;;;;;;7.63;2.92;;;;;;;-0.32;61.82;100694.31;5072817;28;20071;-62
2021/12/26 04:23:07;;;;;;;7.50;3.00;;;;;;;-0.39;62.29;100698.28;5072496;28;20055;-62
2021/12/26 04:25:33;;;;;;;4.85;2.97;;;;;;;-0.45;61.63;100697.09;5072290;28;20112;-62
2021/12/26 04:27:59;;;;;;;6.95;3.00;;;;;;;-0.45;62.16;100697.09;5072267;28;20094;-62
2021/12/26 04:30:26;;;;;;;5.22;3.08;;;;;;;-0.44;61.70;100701.47;5072493;28;20063;-64
2021/12/26 04:32:52;;;;;;;4.75;3.10;;;;;;;-0.43;61.39;100691.16;5072486;28;20025;-64
2021/12/26 04:35:19;;;;;;;4.80;2.97;;;;;;;-0.39;61.36;100695.69;5054660;28;20028;-64
2021/12/26 04:37:45;;;;;;;6.63;3.20;;;;;;;-0.36;61.22;100702.75;5072305;28;20112;-64
2021/12/26 04:40:13;;;;;;;6.57;3.25;;;;;;;-0.34;61.15;100695.97;5072420;28;20029;-64
2021/12/26 04:42:41;;;;;;;6.18;2.78;;;;;;;-0.37;61.37;100699.28;5072680;28;20028;-64
2021/12/26 04:45:08;;;;;;;5.28;3.05;;;;;;;-0.44;61.45;100697.16;5072319;28;20032;-64
2021/12/26 04:47:36;;;;;;;5.55;3.03;;;;;;;-0.44;61.89;100680.69;5072872;28;20377;-64
2021/12/26 04:50:03;;;;;;;7.57;2.90;;;;;;;-0.37;62.02;100686.28;5054398;28;20063;-64
2021/12/26 04:52:33;;;;;;;7.88;3.10;;;;;;;-0.35;61.04;100691.56;5072267;28;20457;-64
2021/12/26 04:55:02;;;;;;;7.28;3.20;;;;;;;-0.49;61.59;100680.47;5072523;28;20024;-64
2021/12/26 04:57:28;;;;;;;6.78;3.15;;;;;;;-0.54;62.67;100685.41;5075903;28;20548;-64
2021/12/26 04:59:54;;;;;;;4.88;3.00;;;;;;;-0.53;62.04;100688.91;5075690;28;20056;-64
2021/12/26 05:02:19;;;;;;;5.10;3.17;;;;;;;-0.59;62.26;100684.28;5075786;28;20063;-64
2021/12/26 05:04:45;;;;;;;5.32;3.13;;;;;;;-0.60;62.26;100685.13;5075931;28;20424;-64
2021/12/26 05:07:10;;;;;;;5.53;3.20;;;;;;;-0.62;62.41;100680.63;5075516;28;20492;-64
2021/12/26 05:09:36;;;;;;;5.45;3.30;;;;;;;-0.67;62.08;100682.09;5075815;28;20025;-64
2021/12/26 05:12:01;;;;;;;10.60;3.53;;;;;;;-0.69;62.91;100675.94;5075840;28;20024;-64
2021/12/26 05:14:27;;;;;;;5.22;3.30;;;;;;;-0.69;62.76;100681.13;5075463;28;20025;-64
2021/12/26 05:16:52;;;;;;;6.38;3.00;;;;;;;-0.67;62.59;100675.22;5075414;28;20024;-64
2021/12/26 05:19:18;;;;;;;6.28;3.00;;;;;;;-0.61;62.56;100672.91;5075342;28;20470;-64
2021/12/26 05:21:43;;;;;;;6.38;3.15;;;;;;;-0.57;62.53;100668.78;5075240;28;20020;-64
2021/12/26 05:24:08;;;;;;;5.05;3.20;;;;;;;-0.52;61.65;100676.00;5075728;28;20041;-64
2021/12/26 05:26:39;;;;;;;6.75;3.22;;;;;;;-0.51;62.51;100670.00;5075191;28;20508;-64
2021/12/26 05:29:05;;;;;;;5.20;3.08;;;;;;;-0.49;61.56;100667.50;5075262;28;20527;-64
2021/12/26 05:31:30;;;;;;;6.32;3.35;;;;;;;-0.51;61.76;100670.00;5075269;28;20036;-64
2021/12/26 05:33:55;;;;;;;6.72;3.28;;;;;;;-0.59;62.28;100666.13;5075123;28;20101;-64
2021/12/26 05:36:21;;;;;;;8.38;3.13;;;;;;;-0.61;62.31;100661.66;5075158;28;20021;-64
2021/12/26 05:38:47;;;;;;;8.07;3.83;;;;;;;-0.64;62.44;100662.41;5075035;28;20048;-64
2021/12/26 05:41:12;;;;;;;5.25;3.40;;;;;;;-0.67;62.88;100656.16;5075216;28;20040;-64
2021/12/26 05:43:37;;;;;;;6.47;3.20;;;;;;;-0.64;62.78;100657.22;5075183;28;20104;-64
2021/12/26 05:46:03;;;;;;;6.53;3.20;;;;;;;-0.65;62.78;100659.72;5074798;28;20063;-64
2021/12/26 05:48:28;;;;;;;4.95;2.90;;;;;;;-0.67;62.82;100657.03;5074781;28;20029;-64
2021/12/26 05:50:54;;;;;;;7.32;3.47;;;;;;;-0.66;62.78;100657.94;5074735;28;20025;-64
2021/12/26 05:53:19;;;;;;;7.85;3.25;;;;;;;-0.68;62.54;100650.09;5074909;28;20031;-64
2021/12/26 05:55:45;;;;;;;4.65;3.08;;;;;;;-0.72;63.05;100649.84;5074870;28;20024;-64
2021/12/26 05:58:10;;;;;;;4.88;3.15;;;;;;;-0.76;62.65;100641.00;5074861;28;20020;-64
2021/12/26 06:00:36;;;;;;;7.25;3.40;;;;;;;-0.81;63.30;100640.75;5074628;28;20576;-64
2021/12/26 06:03:01;;;;;;;5.15;3.03;;;;;;;-0.80;63.07;100652.03;5074546;28;20564;-64
2021/12/26 06:05:27;;;;;;;7.32;3.17;;;;;;;-0.82;63.25;100643.25;5074788;28;20024;-65
2021/12/26 06:07:58;;;;;;;6.85;3.50;;;;;;;-0.83;62.83;100644.97;5073721;28;20020;-64
2021/12/26 06:10:23;;;;;;;5.35;3.08;;;;;;;-0.83;62.99;100646.66;5073905;28;20359;-64
2021/12/26 06:12:49;;;;;;;23.50;10.50;;;;;;;-0.83;62.83;100652.75;5074068;28;20028;-64
2021/12/26 06:15:14;;;;;;;6.57;3.78;;;;;;;-0.90;64.03;100642.88;5074168;28;20025;-64
2021/12/26 06:17:40;;;;;;;6.57;3.75;;;;;;;-0.93;64.56;100652.19;5074587;28;20028;-64
2021/12/26 06:20:06;;;;;;;6.40;3.78;;;;;;;-0.97;64.57;100640.75;5074417;28;20366;-64
2021/12/26 06:22:32;;;;;;;4.88;3.13;;;;;;;-0.96;64.76;100644.22;5074516;28;20021;-64
2021/12/26 06:24:57;;;;;;;7.47;4.90;;;;;;;-1.04;65.52;100643.81;5074081;28;20378;-62
2021/12/26 06:27:22;;;;;;;8.50;3.95;;;;;;;-1.09;64.79;100640.97;5074042;28;20045;-64
2021/12/26 06:29:48;;;;;;;6.28;3.55;;;;;;;-1.13;64.43;100643.31;5074218;28;20027;-64
2021/12/26 06:32:13;;;;;;;9.05;3.75;;;;;;;-1.14;64.43;100645.03;5074134;28;20024;-64
2021/12/26 06:34:39;;;;;;;7.50;4.20;;;;;;;-1.19;64.55;100640.41;5074104;28;20031;-64
2021/12/26 06:37:04;;;;;;;8.82;4.28;;;;;;;-1.19;64.95;100646.50;5073886;28;20021;-64
2021/12/26 06:39:30;;;;;;;7.97;3.83;;;;;;;-1.19;64.28;100643.91;5074191;28;20020;-64
2021/12/26 06:41:55;;;;;;;5.53;3.85;;;;;;;-1.24;64.37;100636.66;5073709;28;20111;-64
2021/12/26 06:44:21;;;;;;;8.60;4.25;;;;;;;-1.19;64.53;100640.41;5073829;28;20035;-64
2021/12/26 06:46:47;;;;;;;7.38;4.80;;;;;;;-1.15;65.67;100651.03;5055994;28;20029;-64
2021/12/26 06:49:16;;;;;;;7.70;4.28;;;;;;;-1.19;64.84;100645.59;5073617;28;20036;-64
2021/12/26 06:51:41;;;;;;;9.07;3.67;;;;;;;-1.17;64.41;100650.03;5073704;28;20056;-64
2021/12/26 06:54:07;;;;;;;6.72;3.63;;;;;;;-1.21;64.16;100642.03;5055692;28;20102;-64
2021/12/26 06:56:32;;;;;;;5.10;3.42;;;;;;;-1.20;64.79;100643.78;5073722;28;20392;-64
2021/12/26 06:58:58;;;;;;;6.10;3.78;;;;;;;-1.19;65.21;100659.44;5073808;28;20078;-64
2021/12/26 07:01:23;;;;;;;5.40;3.35;;;;;;;-1.15;64.57;100645.84;5073404;28;20434;-64
2021/12/26 07:03:49;;;;;;;6.40;3.45;;;;;;;-1.14;64.82;100654.50;5055471;28;20035;-64
2021/12/26 07:06:14;;;;;;;5.70;3.50;;;;;;;-1.12;64.51;100652.88;5073483;28;20020;-64
2021/12/26 07:08:40;;;;;;;7.57;4.28;;;;;;;-1.11;64.72;100647.81;5073515;28;20020;-64
2021/12/26 07:11:05;;;;;;;7.35;3.67;;;;;;;-1.09;64.42;100638.38;5073257;28;20054;-64
2021/12/26 07:13:32;;;;;;;6.03;3.60;;;;;;;-1.09;64.40;100638.38;5073648;28;20056;-64
2021/12/26 07:15:57;;;;;;;7.82;3.65;;;;;;;-1.14;64.65;100628.59;5073289;28;20070;-64
2021/12/26 07:18:22;;;;;;;8.65;4.57;;;;;;;-1.12;65.33;100638.22;5072439;28;20024;-64
2021/12/26 07:20:48;;;;;;;6.78;3.78;;;;;;;-1.15;65.08;100638.06;5073227;28;20035;-64
2021/12/26 07:23:13;;;;;;;7.53;3.45;;;;;;;-1.15;65.23;100642.38;5073349;28;20028;-64
2021/12/26 07:25:38;;;;;;;6.13;3.70;;;;;;;-1.12;65.84;100646.00;5072950;28;20086;-64
2021/12/26 07:28:05;;;;;;;7.80;4.32;;;;;;;-1.12;66.70;100653.75;5073267;28;20082;-64
2021/12/26 07:30:31;;;;;;;9.18;4.40;;;;;;;-1.09;65.73;100647.88;5073169;28;20032;-64
2021/12/26 07:32:58;;;;;;;6.10;4.10;;;;;;;-1.09;65.41;100637.50;5073074;28;20025;-67
2021/12/26 07:35:24;;;;;;;7.78;3.85;;;;;;;-1.05;65.61;100642.94;5073186;28;20561;-65
2021/12/26 07:37:52;;;;;;;6.60;4.20;;;;;;;-1.04;65.67;100641.22;5073153;28;20033;-64
2021/12/26 07:40:18;;;;;;;7.25;4.25;;;;;;;-1.00;65.46;100638.00;5072967;28;20024;-64
2021/12/26 07:42:44;;;;;;;6.05;3.40;;;;;;;-0.99;66.00;100636.28;5072725;28;20031;-64
2021/12/26 07:45:10;;;;;;;6.65;4.20;;;;;;;-1.00;66.06;100638.00;5072850;28;20082;-64
2021/12/26 07:47:36;;;;;;;6.18;3.75;;;;;;;-0.97;66.08;100638.16;5054472;28;20037;-64
2021/12/26 07:50:02;;;;;;;7.05;3.88;;;;;;;-0.89;66.13;100638.56;5072528;28;20028;-64
2021/12/26 07:52:32;;;;;;;7.95;3.90;;;;;;;-0.90;65.49;100641.94;5072922;28;20024;-64
2021/12/26 07:54:58;;;;;;;9.43;4.55;;;;;;;-0.89;65.93;100644.66;5072433;28;20470;-64
2021/12/26 07:57:29;;;;;;;6.57;3.78;;;;;;;-0.83;65.60;100649.25;5072447;28;20028;-64
2021/12/26 07:59:55;;;;;;;6.20;4.25;;;;;;;-0.86;66.18;100634.41;5072293;28;20036;-63
2021/12/26 08:02:23;;;;;;;6.78;3.90;;;;;;;-0.84;65.88;100650.97;5072630;28;20029;-64
2021/12/26 08:04:49;;;;;;;5.35;3.50;;;;;;;-0.87;65.80;100652.50;5072213;28;20024;-64
2021/12/26 08:07:15;;;;;;;6.63;3.72;;;;;;;-0.87;65.63;100655.09;5072364;28;20385;-64
2021/12/26 08:09:41;;;;;;;7.60;4.78;;;;;;;-0.82;66.27;100657.13;5072303;28;20029;-64
2021/12/26 08:12:07;;;;;;;10.05;5.43;;;;;;;-0.81;66.47;100658.03;5072203;28;20043;-64
2021/12/26 08:14:33;;;;;;;8.07;3.90;;;;;;;-0.76;66.14;100653.97;5072376;28;20024;-64
2021/12/26 08:16:58;;;;;;;11.95;5.82;;;;;;;-0.71;66.52;100656.81;5072066;28;20432;-64
2021/12/26 08:19:24;;;;;;;6.35;3.78;;;;;;;-0.67;66.34;100651.84;5072354;28;20048;-64
2021/12/26 08:21:52;;;;;;;9.52;3.90;;;;;;;-0.58;66.13;100654.03;5071976;28;20107;-64
2021/12/26 08:24:18;;;;;;;7.53;4.38;;;;;;;-0.55;65.72;100646.44;5072344;28;20043;-64
2021/12/26 08:26:51;;;;;;;7.25;4.18;;;;;;;-0.50;66.19;100652.72;5071732;28;20036;-64
2021/12/26 08:29:18;;;;;;;9.50;4.55;;;;;;;-0.47;67.16;100650.31;5072456;28;20428;-64
2021/12/26 08:31:44;;;;;;;9.40;4.10;;;;;;;-0.44;66.41;100653.03;5075775;28;20112;-64
2021/12/26 08:34:09;;;;;;;7.50;4.00;;;;;;;-0.46;66.17;100641.69;5075838;28;20492;-64
2021/12/26 08:36:35;;;;;;;9.18;5.78;;;;;;;-0.41;66.22;100652.31;5075655;28;20021;-64
2021/12/26 08:39:03;;;;;;;9.02;4.50;;;;;;;-0.37;66.10;100655.16;5075838;28;20029;-64
2021/12/26 08:41:29;;;;;;;8.52;4.22;;;;;;;-0.40;66.15;100657.56;5075477;28;20035;-64
2021/12/26 08:43:55;;;;;;;8.25;4.18;;;;;;;-0.38;66.27;100644.69;5075526;28;20162;-64
2021/12/26 08:46:22;;;;;;;7.63;4.60;;;;;;;-0.33;66.33;100651.91;5075600;28;20377;-64
2021/12/26 08:48:47;;;;;;;8.65;4.18;;;;;;;-0.32;66.63;100645.88;5075368;28;20016;-64
2021/12/26 08:51:14;;;;;;;8.68;4.88;;;;;;;-0.27;67.35;100647.00;5075673;28;20116;-64
2021/12/26 08:53:39;;;;;;;8.30;4.30;;;;;;;-0.22;66.60;100648.94;5075394;28;20031;-64
2021/12/26 08:56:06;;;;;;;8.25;5.35;;;;;;;-0.22;67.70;100649.81;5075267;28;20025;-64
2021/12/26 08:58:31;;;;;;;8.15;4.00;;;;;;;-0.19;66.29;100652.59;5075413;28;20028;-64
2021/12/26 09:00:57;;;;;;;8.18;3.88;;;;;;;-0.17;66.44;100652.66;5075502;28;20035;-64
2021/12/26 09:03:22;;;;;;;7.47;4.22;;;;;;;-0.16;66.24;100649.28;5075148;28;20477;-64
2021/12/26 09:05:48;;;;;;;6.65;4.32;;;;;;;-0.15;66.68;100646.75;5075094;28;20047;-64
2021/12/26 09:08:13;;;;;;;6.95;4.35;;;;;;;-0.13;67.31;100641.59;5075280;28;20071;-64
2021/12/26 09:10:40;;;;;;;7.68;4.60;;;;;;;-0.08;67.39;100640.16;5074949;28;20039;-65
2021/12/26 09:13:07;;;;;;;8.10;4.53;;;;;;;-0.02;66.53;100653.44;5075014;28;20466;-64
2021/12/26 09:15:32;;;;;;;7.38;4.50;;;;;;;0.02;66.80;100642.38;5075053;28;20426;-65
2021/12/26 09:17:59;;;;;;;8.30;4.53;;;;;;;0.05;66.64;100646.84;5075159;28;20108;-64
2021/12/26 09:20:26;;;;;;;7.57;4.13;;;;;;;0.04;66.54;100642.44;5074651;28;20041;-64
2021/12/26 09:22:52;;;;;;;9.57;4.95;;;;;;;0.05;66.79;100652.94;5074964;28;20033;-64
2021/12/26 09:25:17;;;;;;;8.15;5.07;;;;;;;0.00;67.49;100641.44;5074822;28;20028;-64
2021/12/26 09:27:43;;;;;;;9.70;4.35;;;;;;;0.02;66.81;100641.50;5074568;28;20477;-64
2021/12/26 09:30:11;;;;;;;8.90;5.22;;;;;;;0.05;68.01;100650.34;5075001;28;20098;-64
2021/12/26 09:32:37;;;;;;;7.25;4.57;;;;;;;0.08;68.29;100649.59;5056873;28;20496;-64
2021/12/26 09:35:04;;;;;;;9.07;5.63;;;;;;;0.12;67.61;100638.53;5056808;28;20145;-64
2021/12/26 09:37:29;;;;;;;8.25;4.25;;;;;;;0.18;67.11;100644.94;5074686;28;20458;-64
2021/12/26 09:39:55;;;;;;;7.68;4.40;;;;;;;0.22;67.45;100641.66;5074775;28;20035;-64
2021/12/26 09:42:21;;;;;;;7.97;4.55;;;;;;;0.24;68.06;100639.13;5073515;28;20435;-64
2021/12/26 09:44:47;;;;;;;7.80;4.53;;;;;;;0.29;67.79;100644.53;5074628;28;20040;-64
2021/12/26 09:47:13;;;;;;;9.02;4.90;;;;;;;0.34;67.86;100645.66;5074627;28;20457;-64
2021/12/26 09:49:38;;;;;;;8.55;4.50;;;;;;;0.34;66.83;100640.47;5056396;28;20491;-65
2021/12/26 09:52:05;;;;;;;8.52;4.82;;;;;;;0.35;66.78;100650.94;5074440;28;20024;-64
2021/12/26 09:54:31;;;;;;;7.88;4.40;;;;;;;0.39;68.05;100644.19;5074411;28;20025;-64
2021/12/26 09:56:57;;;;;;;9.77;4.72;;;;;;;0.42;68.32;100628.72;5074194;28;20039;-64
2021/12/26 09:59:23;;;;;;;9.15;5.00;;;;;;;0.42;67.19;100645.22;5074219;28;20028;-64
2021/12/26 10:01:54;;;;;;;9.45;5.20;;;;;;;0.46;67.41;100641.94;5056541;28;20028;-64
2021/12/26 10:04:31;;;;;;;8.85;5.13;;;;;;;0.51;67.12;100642.16;5074099;28;20046;-64
2021/12/26 10:06:58;;;;;;;9.05;5.03;;;;;;;0.58;66.92;100632.94;5074225;28;20039;-65
2021/12/26 10:09:25;;;;;;;8.60;4.80;;;;;;;0.55;68.10;100622.41;5073900;28;20103;-64
2021/12/26 10:11:54;;;;;;;9.32;4.85;;;;;;;0.66;67.58;100622.09;5073946;28;20031;-64
2021/12/26 10:14:24;;;;;;;10.00;4.70;;;;;;;0.69;66.62;100616.16;5073524;28;20059;-64
2021/12/26 10:16:53;;;;;;;11.93;5.25;;;;;;;0.71;66.33;100609.31;5074057;28;20039;-65
2021/12/26 10:19:19;;;;;;;8.98;5.03;;;;;;;0.74;66.64;100605.13;5073906;28;20025;-64
2021/12/26 10:22:02;;;;;;;9.57;5.20;;;;;;;0.75;67.38;100604.31;5055690;28;20488;-65
2021/12/26 10:24:30;;;;;;;10.23;4.95;;;;;;;0.74;66.88;100592.13;5073993;28;20039;-64
2021/12/26 10:27:09;;;;;;;7.85;5.00;;;;;;;0.77;66.83;100604.38;5073616;28;20127;-64
2021/12/26 10:29:40;;;;;;;8.32;5.07;;;;;;;0.78;67.22;100587.09;5073992;28;20028;-64
2021/12/26 10:32:10;;;;;;;8.40;5.00;;;;;;;0.81;67.16;100584.59;5073815;28;20052;-64
2021/12/26 10:35:06;;;;;;;8.05;5.00;;;;;;;0.86;67.59;100583.13;5073627;28;20524;-65
2021/12/26 10:37:34;;;;;;;10.88;5.47;;;;;;;0.89;67.77;100586.72;5071578;28;20127;-64
2021/12/26 10:40:04;;;;;;;10.90;5.68;;;;;;;0.90;67.54;100579.81;5073584;28;20478;-64
2021/12/26 10:42:33;;;;;;;9.27;5.28;;;;;;;0.92;67.56;100573.88;5073390;28;20039;-64
2021/12/26 10:45:01;;;;;;;10.10;5.45;;;;;;;0.92;67.87;100570.38;5073497;28;20032;-63
2021/12/26 10:47:31;;;;;;;7.82;4.97;;;;;;;0.92;67.84;100573.88;5073225;28;20037;-63
2021/12/26 10:50:25;;;;;;;10.80;5.70;;;;;;;0.93;67.53;100569.56;5073390;28;20028;-64
2021/12/26 10:52:59;;;;;;;11.05;5.40;;;;;;;1.01;68.03;100578.59;5073266;28;20028;-64
2021/12/26 10:55:37;;;;;;;13.35;5.97;;;;;;;1.02;67.48;100574.28;5055134;28;20427;-64
2021/12/26 10:58:10;;;;;;;11.52;5.78;;;;;;;1.06;67.69;100576.19;5072991;28;20051;-64
2021/12/26 11:00:47;;;;;;;8.90;5.90;;;;;;;1.08;68.45;100569.38;5073053;28;20059;-64
2021/12/26 11:03:21;;;;;;;10.55;5.60;;;;;;;1.09;68.28;100577.22;5072994;28;20097;-65
2021/12/26 11:05:52;;;;;;;9.60;5.13;;;;;;;1.12;68.29;100566.97;5073095;28;20035;-64
2021/12/26 11:08:28;;;;;;;12.38;5.78;;;;;;;1.14;69.00;100562.69;5072721;28;20068;-63
2021/12/26 11:10:55;;;;;;;12.05;5.88;;;;;;;1.15;68.70;100554.06;5073077;28;20024;-61
2021/12/26 11:13:20;;;;;;;10.07;6.40;;;;;;;1.18;68.56;100556.81;5072998;28;20428;-63
2021/12/26 11:15:46;;;;;;;11.23;6.13;;;;;;;1.22;69.54;100550.03;5072833;28;20020;-64
2021/12/26 11:18:14;;;;;;;11.38;5.82;;;;;;;1.23;68.70;100547.47;5072920;28;20060;-64
2021/12/26 11:20:52;;;;;;;10.32;5.82;;;;;;;1.19;68.49;100555.97;5072642;28;20111;-64
2021/12/26 11:23:22;;;;;;;11.25;6.07;;;;;;;1.20;69.17;100555.19;5072764;28;20024;-65
2021/12/26 11:25:59;;;;;;;11.53;6.30;;;;;;;1.22;69.19;100553.50;5072435;28;20048;-65
2021/12/26 11:28:28;;;;;;;14.25;5.82;;;;;;;1.26;68.93;100551.94;5072677;28;20090;-65
2021/12/26 11:31:04;;;;;;;12.82;6.00;;;;;;;1.34;68.68;100560.09;5054354;28;20481;-67